San Antonio, Texas
Traffic Map
Current Weather Conditions
San Antonio, Texas
Broken Clouds
Broken Clouds
23°
Feels Like: 23°
Wind Chill: 23° Ceiling: 25000
Heat Index: 23° Visibility: 10mi
Dew Point: 20° Wind: 5mph
Humidity: 84% Direction: 10° (N)
Pressure: 30.12in Gusts: 0mph
Raw Report DataKSAT 250951Z 01004KT 10SM FEW031 SCT080 BKN250 23/20 A3012 RMK AO2 SLP183 T02280200
Traffic Incident Summary
Active as of:
Severity:
Category:
InformationThere was an issue retrieving the traffic information for this location. Please try a different location or try again shortly.
Advertisements
Track Severe Weather on mobile